Aeroporto :
LOGIN :

Iscrizione | Disclaimer

   EN    FR    IT 

 










Sommario :    VFR   VFR Marginale   IFR   IFR Intensivo   IFR Molto Intensivo
Visibilità : 
Base nubi : 
>= 8 km
>= 3000ft
5 / 8 km
1000 / 3000 ft
1500m / 5 km
500 / 1000 ft
800 / 1500m
200 / 500 ft
< 800m
< 200 ft
Simboli :   Temporali  Nebbia  Neve Forte  Precipitazioni Forti  Vento > 20 kt
SIGMETs :   Varie  Temporali  Ghiacco  Turbolenza  Onda orograficha  Ceneri Vulcaniche






- Altitudine del aeroporto : 503 ft
- Codice IATA : BLE


ESSD - Borlange

ULTIMO METAR :
  • 100950Z AUTO 28010KT 9999 NCD 08/M07 Q1022

METARs OBSOLETI :
  • 100920Z AUTO 32012KT 9999 NCD 07/M07 Q1022
  • 100850Z AUTO 31013KT 9999 SCT094/// 06/M07 Q1022
  • 100820Z AUTO 32012KT 9999 FEW110/// 06/M06 Q1022
  • 100750Z AUTO 32010KT 9999 NCD 05/M05 Q1022
  • 100720Z AUTO 31010KT 280V340 9999 FEW094/// 04/M05 Q1022

Previsioni scadute.



MetMap, La meteo Aeronautica in un colpo d'occhio ! - Copyright ORBIFLY Dicembre 2007 - Disclaimer

ORBIFLY MET'MAP TEAM :

Programmazione e sviluppo : Alexandra Zaïnal
Concezione : Baudouin d'Aumeries
Aiuto per la programmazione : Marc-Olivier Méhu
Supporto tecnico e logistico : Manuel Goepfert
Aiuto per la traduzione : Arnaldo La Scala

Contatto : metmap@orbifly.com




FONTI E CREDITI :

   NOAA